PWSweather.com
Personal Weather Stations
Station Observations
KNJOAKLA6
Oakland, NJ 07436

Oakland, NJ 07436

Lat: 41.041, Lon: -74.231

Elevation: 280

Station Type: Davis VP 2

http://stratacolorado.com/oaknjwx/

High Low Average
Temperature 43.9°F6.6°F 25.7°F-3.5°F 33.8°F1.0°F
Dew Point 38.5°F3.6°F 24.2°F-4.3°F 30.2°F-1.0°F
Winds 4.0 mph NE6.4 mph NE Calm Calm 0.3 mph 0.5 mph
Wind Gusts 13.0 mph20.9 mph -- 2.6 mph4.2 mph
Humidity 96% 67% 87%
Pressure 30.14 in1020.70 in 29.85 in1010.80 in -
Precipitation 1.47 in37.30 in - -
Hour Temp Dew Point Humidity Winds Wind Gusts Pressure Precip Precip Rate Daily Precip Total
12:00 AM 30.1°F-1.1°C 27.8°F-2.3°C 91% Calm Calm -- 30.09 in1019.0 mb 0.00 in0.0 mm 0.00 in0.0 mm 0.00 in0.0 mm
12:10 AM 30.1°F-1.1°C 27.8°F-2.3°C 91% Calm Calm -- 30.09 in1019.0 mb 0.00 in0.0 mm 0.00 in0.0 mm 0.00 in0.0 mm
12:20 AM 30.0°F-1.1°C 28.0°F-2.2°C 92% Calm Calm 1.0 mph1.6 kmh 30.08 in1018.6 mb 0.00 in0.0 mm 0.00 in0.0 mm 0.00 in0.0 mm
12:30 AM 29.9°F-1.2°C 27.9°F-2.3°C 92% Calm Calm 1.0 mph1.6 kmh 30.08 in1018.6 mb 0.00 in0.0 mm 0.00 in0.0 mm 0.00 in0.0 mm
12:40 AM 29.8°F-1.2°C 27.8°F-2.3°C 92% Calm Calm 2.0 mph3.2 kmh 30.09 in1019.0 mb 0.00 in0.0 mm 0.00 in0.0 mm 0.00 in0.0 mm
12:50 AM 29.8°F-1.2°C 27.8°F-2.3°C 92% Calm Calm -- 30.09 in1019.0 mb 0.00 in0.0 mm 0.00 in0.0 mm 0.00 in0.0 mm
01:00 AM 29.7°F-1.3°C 27.7°F-2.4°C 92% Calm Calm -- 30.09 in1019.0 mb 0.00 in0.0 mm 0.00 in0.0 mm 0.00 in0.0 mm
01:10 AM 29.7°F-1.3°C 27.9°F-2.3°C 93% Calm Calm 2.0 mph3.2 kmh 30.09 in1019.0 mb 0.00 in0.0 mm 0.00 in0.0 mm 0.00 in0.0 mm
01:20 AM 29.6°F-1.3°C 27.8°F-2.3°C 93% Calm Calm 1.0 mph1.6 kmh 30.09 in1019.0 mb 0.00 in0.0 mm 0.00 in0.0 mm 0.00 in0.0 mm
01:30 AM 29.4°F-1.4°C 27.6°F-2.4°C 93% Calm Calm -- 30.09 in1019.0 mb 0.00 in0.0 mm 0.00 in0.0 mm 0.00 in0.0 mm
01:40 AM 29.3°F-1.5°C 27.5°F-2.5°C 93% Calm Calm -- 30.10 in1019.3 mb 0.00 in0.0 mm 0.00 in0.0 mm 0.00 in0.0 mm
01:50 AM 29.1°F-1.6°C 27.3°F-2.6°C 93% Calm Calm -- 30.10 in1019.3 mb 0.00 in0.0 mm 0.00 in0.0 mm 0.00 in0.0 mm
02:00 AM 28.9°F-1.7°C 27.1°F-2.7°C 93% Calm Calm -- 30.10 in1019.3 mb 0.00 in0.0 mm 0.00 in0.0 mm 0.00 in0.0 mm
02:10 AM 28.7°F-1.8°C 26.9°F-2.8°C 93% Calm Calm 1.0 mph1.6 kmh 30.10 in1019.3 mb 0.00 in0.0 mm 0.00 in0.0 mm 0.00 in0.0 mm
02:20 AM 28.7°F-1.8°C 26.9°F-2.8°C 93% Calm Calm -- 30.10 in1019.3 mb 0.00 in0.0 mm 0.00 in0.0 mm 0.00 in0.0 mm
02:30 AM 28.5°F-1.9°C 26.7°F-2.9°C 93% Calm Calm -- 30.10 in1019.3 mb 0.00 in0.0 mm 0.00 in0.0 mm 0.00 in0.0 mm
02:40 AM 28.3°F-2.1°C 26.5°F-3.1°C 93% Calm Calm -- 30.10 in1019.3 mb 0.00 in0.0 mm 0.00 in0.0 mm 0.00 in0.0 mm
02:50 AM 28.2°F-2.1°C 26.4°F-3.1°C 93% Calm Calm -- 30.10 in1019.3 mb 0.00 in0.0 mm 0.00 in0.0 mm 0.00 in0.0 mm
03:00 AM 28.0°F-2.2°C 26.2°F-3.2°C 93% Calm Calm -- 30.10 in1019.3 mb 0.00 in0.0 mm 0.00 in0.0 mm 0.00 in0.0 mm
03:10 AM 27.9°F-2.3°C 26.1°F-3.3°C 93% Calm Calm -- 30.10 in1019.3 mb 0.00 in0.0 mm 0.00 in0.0 mm 0.00 in0.0 mm
03:20 AM 27.7°F-2.4°C 25.9°F-3.4°C 93% Calm Calm -- 30.10 in1019.3 mb 0.00 in0.0 mm 0.00 in0.0 mm 0.00 in0.0 mm
03:30 AM 27.6°F-2.4°C 25.8°F-3.4°C 93% Calm Calm 1.0 mph1.6 kmh 30.11 in1019.6 mb 0.00 in0.0 mm 0.00 in0.0 mm 0.00 in0.0 mm
03:40 AM 27.5°F-2.5°C 25.7°F-3.5°C 93% Calm Calm -- 30.11 in1019.6 mb 0.00 in0.0 mm 0.00 in0.0 mm 0.00 in0.0 mm
03:50 AM 27.4°F-2.6°C 25.6°F-3.6°C 93% Calm Calm -- 30.11 in1019.6 mb 0.00 in0.0 mm 0.00 in0.0 mm 0.00 in0.0 mm
04:00 AM 27.3°F-2.6°C 25.5°F-3.6°C 93% Calm Calm 1.0 mph1.6 kmh 30.11 in1019.6 mb 0.00 in0.0 mm 0.00 in0.0 mm 0.00 in0.0 mm
04:10 AM 27.2°F-2.7°C 25.4°F-3.7°C 93% Calm Calm 3.0 mph4.8 kmh 30.11 in1019.6 mb 0.00 in0.0 mm 0.00 in0.0 mm 0.00 in0.0 mm
04:20 AM 27.2°F-2.7°C 25.4°F-3.7°C 93% Calm Calm 1.0 mph1.6 kmh 30.11 in1019.6 mb 0.00 in0.0 mm 0.00 in0.0 mm 0.00 in0.0 mm
04:30 AM 27.2°F-2.7°C 25.7°F-3.5°C 94% Calm Calm -- 30.11 in1019.6 mb 0.00 in0.0 mm 0.00 in0.0 mm 0.00 in0.0 mm
04:40 AM 27.2°F-2.7°C 25.7°F-3.5°C 94% Calm Calm -- 30.11 in1019.6 mb 0.00 in0.0 mm 0.00 in0.0 mm 0.00 in0.0 mm
04:50 AM 27.1°F-2.7°C 25.3°F-3.7°C 93% Calm Calm -- 30.11 in1019.6 mb 0.00 in0.0 mm 0.00 in0.0 mm 0.00 in0.0 mm
05:00 AM 27.0°F-2.8°C 25.2°F-3.8°C 93% Calm Calm -- 30.10 in1019.3 mb 0.00 in0.0 mm 0.00 in0.0 mm 0.00 in0.0 mm
05:10 AM 26.9°F-2.8°C 25.4°F-3.7°C 94% Calm Calm -- 30.10 in1019.3 mb 0.00 in0.0 mm 0.00 in0.0 mm 0.00 in0.0 mm
05:20 AM 26.8°F-2.9°C 25.3°F-3.7°C 94% Calm Calm -- 30.10 in1019.3 mb 0.00 in0.0 mm 0.00 in0.0 mm 0.00 in0.0 mm
05:30 AM 26.7°F-2.9°C 25.2°F-3.8°C 94% Calm Calm 1.0 mph1.6 kmh 30.10 in1019.3 mb 0.00 in0.0 mm 0.00 in0.0 mm 0.00 in0.0 mm
05:40 AM 26.7°F-2.9°C 25.2°F-3.8°C 94% Calm Calm 1.0 mph1.6 kmh 30.11 in1019.6 mb 0.00 in0.0 mm 0.00 in0.0 mm 0.00 in0.0 mm
05:50 AM 26.5°F-3.1°C 25.0°F-3.9°C 94% Calm Calm 1.0 mph1.6 kmh 30.11 in1019.6 mb 0.00 in0.0 mm 0.00 in0.0 mm 0.00 in0.0 mm
06:00 AM 26.4°F-3.1°C 24.9°F-3.9°C 94% Calm Calm -- 30.11 in1019.6 mb 0.00 in0.0 mm 0.00 in0.0 mm 0.00 in0.0 mm
06:10 AM 26.3°F-3.2°C 24.8°F-4.0°C 94% Calm Calm -- 30.12 in1020.0 mb 0.00 in0.0 mm 0.00 in0.0 mm 0.00 in0.0 mm
06:20 AM 26.2°F-3.2°C 24.7°F-4.1°C 94% Calm Calm -- 30.12 in1020.0 mb 0.00 in0.0 mm 0.00 in0.0 mm 0.00 in0.0 mm
06:30 AM 26.2°F-3.2°C 24.7°F-4.1°C 94% Calm Calm 1.0 mph1.6 kmh 30.12 in1020.0 mb 0.00 in0.0 mm 0.00 in0.0 mm 0.00 in0.0 mm
06:40 AM 26.2°F-3.2°C 24.7°F-4.1°C 94% Calm Calm -- 30.12 in1020.0 mb 0.00 in0.0 mm 0.00 in0.0 mm 0.00 in0.0 mm
06:50 AM 26.1°F-3.3°C 24.6°F-4.1°C 94% Calm Calm -- 30.12 in1020.0 mb 0.00 in0.0 mm 0.00 in0.0 mm 0.00 in0.0 mm
07:00 AM 26.1°F-3.3°C 24.6°F-4.1°C 94% Calm Calm -- 30.13 in1020.3 mb 0.00 in0.0 mm 0.00 in0.0 mm 0.00 in0.0 mm
07:10 AM 26.0°F-3.3°C 24.5°F-4.2°C 94% Calm Calm -- 30.13 in1020.3 mb 0.00 in0.0 mm 0.00 in0.0 mm 0.00 in0.0 mm
07:20 AM 25.9°F-3.4°C 24.4°F-4.2°C 94% Calm Calm -- 30.13 in1020.3 mb 0.00 in0.0 mm 0.00 in0.0 mm 0.00 in0.0 mm
07:30 AM 25.8°F-3.4°C 24.3°F-4.3°C 94% Calm Calm -- 30.12 in1020.0 mb 0.00 in0.0 mm 0.00 in0.0 mm 0.00 in0.0 mm
07:40 AM 25.8°F-3.4°C 24.3°F-4.3°C 94% Calm Calm -- 30.12 in1020.0 mb 0.00 in0.0 mm 0.00 in0.0 mm 0.00 in0.0 mm
07:50 AM 25.7°F-3.5°C 24.2°F-4.3°C 94% Calm Calm -- 30.12 in1020.0 mb 0.00 in0.0 mm 0.00 in0.0 mm 0.00 in0.0 mm
08:00 AM 25.7°F-3.5°C 24.2°F-4.3°C 94% Calm Calm -- 30.12 in1020.0 mb 0.00 in0.0 mm 0.00 in0.0 mm 0.00 in0.0 mm
08:10 AM 25.7°F-3.5°C 24.2°F-4.3°C 94% Calm Calm -- 30.12 in1020.0 mb 0.00 in0.0 mm 0.00 in0.0 mm 0.00 in0.0 mm
08:20 AM 25.8°F-3.4°C 24.3°F-4.3°C 94% Calm Calm -- 30.13 in1020.3 mb 0.00 in0.0 mm 0.00 in0.0 mm 0.00 in0.0 mm
08:30 AM 26.0°F-3.3°C 24.5°F-4.2°C 94% Calm Calm -- 30.13 in1020.3 mb 0.00 in0.0 mm 0.00 in0.0 mm 0.00 in0.0 mm
08:40 AM 26.3°F-3.2°C 24.8°F-4.0°C 94% Calm Calm -- 30.12 in1020.0 mb 0.00 in0.0 mm 0.00 in0.0 mm 0.00 in0.0 mm
08:50 AM 26.8°F-2.9°C 25.3°F-3.7°C 94% Calm Calm -- 30.12 in1020.0 mb 0.00 in0.0 mm 0.00 in0.0 mm 0.00 in0.0 mm
09:00 AM 27.5°F-2.5°C 26.3°F-3.2°C 95% Calm Calm -- 30.13 in1020.3 mb 0.00 in0.0 mm 0.00 in0.0 mm 0.00 in0.0 mm
09:10 AM 28.3°F-2.1°C 27.1°F-2.7°C 95% Calm Calm -- 30.13 in1020.3 mb 0.00 in0.0 mm 0.00 in0.0 mm 0.00 in0.0 mm
09:20 AM 29.0°F-1.7°C 27.7°F-2.4°C 95% Calm Calm 1.0 mph1.6 kmh 30.13 in1020.3 mb 0.00 in0.0 mm 0.00 in0.0 mm 0.00 in0.0 mm
09:30 AM 29.7°F-1.3°C 28.4°F-2.0°C 95% Calm Calm 1.0 mph1.6 kmh 30.14 in1020.7 mb 0.01 in0.3 mm 0.06 in1.5 mm 0.01 in0.3 mm
09:40 AM 30.4°F-0.9°C 29.1°F-1.6°C 95% Calm Calm -- 30.12 in1020.0 mb 0.01 in0.3 mm 0.00 in0.0 mm 0.01 in0.3 mm
09:50 AM 31.1°F-0.5°C 29.8°F-1.2°C 95% Calm Calm -- 30.12 in1020.0 mb 0.01 in0.3 mm 0.00 in0.0 mm 0.01 in0.3 mm
10:00 AM 31.8°F-0.1°C 30.5°F-0.8°C 95% Calm Calm -- 30.13 in1020.3 mb 0.01 in0.3 mm 0.00 in0.0 mm 0.01 in0.3 mm
10:10 AM 32.6°F0.3°C 31.3°F-0.4°C 95% Calm Calm -- 30.13 in1020.3 mb 0.01 in0.3 mm 0.00 in0.0 mm 0.01 in0.3 mm
10:20 AM 33.4°F0.8°C 32.1°F0.1°C 95% Calm Calm -- 30.11 in1019.6 mb 0.01 in0.3 mm 0.00 in0.0 mm 0.01 in0.3 mm
10:30 AM 34.3°F1.3°C 33.0°F0.6°C 95% Calm Calm 2.0 mph3.2 kmh 30.10 in1019.3 mb 0.00 in0.0 mm 0.00 in0.0 mm 0.01 in0.3 mm
10:40 AM 35.0°F1.7°C 34.0°F1.1°C 96% Calm Calm 1.0 mph1.6 kmh 30.09 in1019.0 mb 0.00 in0.0 mm 0.00 in0.0 mm 0.01 in0.3 mm
10:50 AM 35.6°F2.0°C 34.6°F1.4°C 96% Calm Calm -- 30.08 in1018.6 mb 0.00 in0.0 mm 0.00 in0.0 mm 0.01 in0.3 mm
11:00 AM 36.6°F2.6°C 35.6°F2.0°C 96% Calm Calm -- 30.08 in1018.6 mb 0.00 in0.0 mm 0.00 in0.0 mm 0.01 in0.3 mm
11:10 AM 37.3°F2.9°C 36.3°F2.4°C 96% Calm Calm 2.0 mph3.2 kmh 30.07 in1018.3 mb 0.00 in0.0 mm 0.00 in0.0 mm 0.01 in0.3 mm
11:20 AM 37.7°F3.2°C 36.7°F2.6°C 96% Calm Calm 2.0 mph3.2 kmh 30.06 in1017.9 mb 0.00 in0.0 mm 0.00 in0.0 mm 0.01 in0.3 mm
11:30 AM 38.7°F3.7°C 37.7°F3.2°C 96% Calm Calm 5.0 mph8.0 kmh 30.06 in1017.9 mb 0.00 in0.0 mm 0.00 in0.0 mm 0.01 in0.3 mm
11:40 AM 39.3°F4.1°C 38.3°F3.5°C 96% 4.0 mph NE6.4 kmh NE 8.0 mph12.9 kmh 30.06 in1017.9 mb 0.00 in0.0 mm 0.00 in0.0 mm 0.01 in0.3 mm
11:50 AM 40.0°F4.4°C 38.4°F3.6°C 94% 3.0 mph E4.8 kmh E 6.0 mph9.7 kmh 30.06 in1017.9 mb 0.00 in0.0 mm 0.00 in0.0 mm 0.01 in0.3 mm
12:00 PM 42.7°F5.9°C 38.5°F3.6°C 85% 1.0 mph NE1.6 kmh NE 12.0 mph19.3 kmh 30.06 in1017.9 mb 0.00 in0.0 mm 0.00 in0.0 mm 0.01 in0.3 mm
12:10 PM 43.7°F6.5°C 36.0°F2.2°C 74% 3.0 mph E4.8 kmh E 12.0 mph19.3 kmh 30.05 in1017.6 mb 0.00 in0.0 mm 0.00 in0.0 mm 0.01 in0.3 mm
12:20 PM 43.9°F6.6°C 35.1°F1.7°C 71% 1.0 mph E1.6 kmh E 3.0 mph4.8 kmh 30.05 in1017.6 mb 0.00 in0.0 mm 0.00 in0.0 mm 0.01 in0.3 mm
12:30 PM 43.7°F6.5°C 34.2°F1.2°C 69% 2.0 mph ENE3.2 kmh ENE 7.0 mph11.3 kmh 30.05 in1017.6 mb 0.00 in0.0 mm 0.00 in0.0 mm 0.01 in0.3 mm
12:40 PM 43.6°F6.4°C 34.1°F1.2°C 69% 1.0 mph NE1.6 kmh NE 6.0 mph9.7 kmh 30.03 in1016.9 mb 0.00 in0.0 mm 0.00 in0.0 mm 0.01 in0.3 mm
12:50 PM 43.3°F6.3°C 33.5°F0.8°C 68% Calm Calm 13.0 mph20.9 kmh 30.02 in1016.6 mb 0.00 in0.0 mm 0.00 in0.0 mm 0.01 in0.3 mm
01:00 PM 43.2°F6.2°C 33.7°F0.9°C 69% 4.0 mph E6.4 kmh E 9.0 mph14.5 kmh 30.02 in1016.6 mb 0.00 in0.0 mm 0.00 in0.0 mm 0.01 in0.3 mm
01:10 PM 43.1°F6.2°C 33.3°F0.7°C 68% 2.0 mph ENE3.2 kmh ENE 5.0 mph8.0 kmh 30.02 in1016.6 mb 0.00 in0.0 mm 0.00 in0.0 mm 0.01 in0.3 mm
01:20 PM 43.0°F6.1°C 33.5°F0.8°C 69% 3.0 mph E4.8 kmh E 7.0 mph11.3 kmh 30.01 in1016.3 mb 0.00 in0.0 mm 0.00 in0.0 mm 0.01 in0.3 mm
01:30 PM 42.9°F6.1°C 33.8°F1.0°C 70% Calm Calm 5.0 mph8.0 kmh 30.00 in1015.9 mb 0.00 in0.0 mm 0.00 in0.0 mm 0.01 in0.3 mm
01:40 PM 42.7°F5.9°C 33.6°F0.9°C 70% Calm Calm 5.0 mph8.0 kmh 30.00 in1015.9 mb 0.00 in0.0 mm 0.00 in0.0 mm 0.01 in0.3 mm
01:50 PM 42.7°F5.9°C 34.0°F1.1°C 71% Calm Calm 2.0 mph3.2 kmh 29.99 in1015.6 mb 0.00 in0.0 mm 0.00 in0.0 mm 0.01 in0.3 mm
02:00 PM 42.8°F6.0°C 34.1°F1.2°C 71% Calm Calm 6.0 mph9.7 kmh 29.99 in1015.6 mb 0.00 in0.0 mm 0.00 in0.0 mm 0.01 in0.3 mm
02:10 PM 42.8°F6.0°C 33.3°F0.7°C 69% 1.0 mph ESE1.6 kmh ESE 6.0 mph9.7 kmh 29.99 in1015.6 mb 0.00 in0.0 mm 0.00 in0.0 mm 0.01 in0.3 mm
02:20 PM 42.7°F5.9°C 32.9°F0.5°C 68% Calm Calm 7.0 mph11.3 kmh 29.99 in1015.6 mb 0.00 in0.0 mm 0.00 in0.0 mm 0.01 in0.3 mm
02:30 PM 42.6°F5.9°C 32.4°F0.2°C 67% 1.0 mph SE1.6 kmh SE 6.0 mph9.7 kmh 29.98 in1015.2 mb 0.00 in0.0 mm 0.00 in0.0 mm 0.01 in0.3 mm
02:40 PM 42.6°F5.9°C 32.4°F0.2°C 67% 1.0 mph ESE1.6 kmh ESE 6.0 mph9.7 kmh 29.98 in1015.2 mb 0.00 in0.0 mm 0.00 in0.0 mm 0.01 in0.3 mm
02:50 PM 42.4°F5.8°C 32.2°F0.1°C 67% Calm Calm 7.0 mph11.3 kmh 29.97 in1014.9 mb 0.00 in0.0 mm 0.00 in0.0 mm 0.01 in0.3 mm
03:00 PM 42.3°F5.7°C 32.1°F0.1°C 67% 1.0 mph ENE1.6 kmh ENE 7.0 mph11.3 kmh 29.96 in1014.6 mb 0.00 in0.0 mm 0.00 in0.0 mm 0.01 in0.3 mm
03:10 PM 42.1°F5.6°C 31.9°F-0.1°C 67% Calm Calm 5.0 mph8.0 kmh 29.96 in1014.6 mb 0.00 in0.0 mm 0.00 in0.0 mm 0.01 in0.3 mm
03:20 PM 42.0°F5.6°C 31.8°F-0.1°C 67% Calm Calm 6.0 mph9.7 kmh 29.95 in1014.2 mb 0.00 in0.0 mm 0.00 in0.0 mm 0.01 in0.3 mm
03:30 PM 41.8°F5.4°C 31.7°F-0.2°C 67% Calm Calm 7.0 mph11.3 kmh 29.95 in1014.2 mb 0.00 in0.0 mm 0.00 in0.0 mm 0.01 in0.3 mm
03:40 PM 41.7°F5.4°C 31.9°F-0.1°C 68% 1.0 mph E1.6 kmh E 7.0 mph11.3 kmh 29.94 in1013.9 mb 0.00 in0.0 mm 0.00 in0.0 mm 0.01 in0.3 mm
03:50 PM 41.5°F5.3°C 31.7°F-0.2°C 68% Calm Calm 5.0 mph8.0 kmh 29.94 in1013.9 mb 0.00 in0.0 mm 0.00 in0.0 mm 0.01 in0.3 mm
04:00 PM 41.4°F5.2°C 32.0°F0.0°C 69% Calm Calm 4.0 mph6.4 kmh 29.94 in1013.9 mb 0.00 in0.0 mm 0.00 in0.0 mm 0.01 in0.3 mm
04:10 PM 41.3°F5.2°C 32.3°F0.2°C 70% Calm Calm 3.0 mph4.8 kmh 29.95 in1014.2 mb 0.00 in0.0 mm 0.00 in0.0 mm 0.01 in0.3 mm
04:20 PM 41.3°F5.2°C 32.6°F0.3°C 71% Calm Calm 3.0 mph4.8 kmh 29.95 in1014.2 mb 0.00 in0.0 mm 0.00 in0.0 mm 0.01 in0.3 mm
04:30 PM 41.1°F5.1°C 32.8°F0.4°C 72% Calm Calm 4.0 mph6.4 kmh 29.96 in1014.6 mb 0.00 in0.0 mm 0.00 in0.0 mm 0.01 in0.3 mm
04:40 PM 41.0°F5.0°C 32.7°F0.4°C 72% Calm Calm 3.0 mph4.8 kmh 29.96 in1014.6 mb 0.00 in0.0 mm 0.00 in0.0 mm 0.01 in0.3 mm
04:50 PM 41.0°F5.0°C 32.7°F0.4°C 72% Calm Calm 1.0 mph1.6 kmh 29.96 in1014.6 mb 0.00 in0.0 mm 0.00 in0.0 mm 0.01 in0.3 mm
05:00 PM 40.8°F4.9°C 32.8°F0.4°C 73% Calm Calm 2.0 mph3.2 kmh 29.97 in1014.9 mb 0.00 in0.0 mm 0.00 in0.0 mm 0.01 in0.3 mm
05:10 PM 40.7°F4.8°C 33.1°F0.6°C 74% Calm Calm -- 29.96 in1014.6 mb 0.00 in0.0 mm 0.00 in0.0 mm 0.01 in0.3 mm
05:20 PM 40.6°F4.8°C 33.3°F0.7°C 75% Calm Calm -- 29.96 in1014.6 mb 0.00 in0.0 mm 0.00 in0.0 mm 0.01 in0.3 mm
05:30 PM 40.5°F4.7°C 33.5°F0.8°C 76% Calm Calm 1.0 mph1.6 kmh 29.96 in1014.6 mb 0.00 in0.0 mm 0.00 in0.0 mm 0.01 in0.3 mm
05:40 PM 40.4°F4.7°C 34.1°F1.2°C 78% 1.0 mph E1.6 kmh E 3.0 mph4.8 kmh 29.95 in1014.2 mb 0.01 in0.3 mm 0.06 in1.5 mm 0.02 in0.5 mm
05:50 PM 40.1°F4.5°C 35.1°F1.7°C 82% Calm Calm 11.0 mph17.7 kmh 29.95 in1014.2 mb 0.02 in0.5 mm 0.06 in1.5 mm 0.03 in0.8 mm
06:00 PM 39.8°F4.3°C 35.4°F1.9°C 84% Calm Calm 4.0 mph6.4 kmh 29.95 in1014.2 mb 0.03 in0.8 mm 0.01 in0.3 mm 0.04 in1.0 mm
06:10 PM 39.6°F4.2°C 35.5°F1.9°C 85% Calm Calm -- 29.95 in1014.2 mb 0.04 in1.0 mm 0.06 in1.5 mm 0.05 in1.3 mm
06:20 PM 39.3°F4.1°C 35.2°F1.8°C 85% Calm Calm 2.0 mph3.2 kmh 29.96 in1014.6 mb 0.05 in1.3 mm 0.06 in1.5 mm 0.06 in1.5 mm
06:30 PM 39.0°F3.9°C 35.2°F1.8°C 86% Calm Calm 1.0 mph1.6 kmh 29.96 in1014.6 mb 0.06 in1.5 mm 0.06 in1.5 mm 0.07 in1.8 mm
06:40 PM 38.8°F3.8°C 35.3°F1.8°C 87% Calm Calm -- 29.97 in1014.9 mb 0.05 in1.3 mm 0.00 in0.0 mm 0.07 in1.8 mm
06:50 PM 38.6°F3.7°C 35.4°F1.9°C 88% Calm Calm -- 29.96 in1014.6 mb 0.05 in1.3 mm 0.00 in0.0 mm 0.08 in2.0 mm
07:00 PM 38.4°F3.6°C 35.2°F1.8°C 88% Calm Calm 1.0 mph1.6 kmh 29.96 in1014.6 mb 0.04 in1.0 mm 0.00 in0.0 mm 0.08 in2.0 mm
07:10 PM 38.2°F3.4°C 35.2°F1.8°C 89% Calm Calm 2.0 mph3.2 kmh 29.95 in1014.2 mb 0.05 in1.3 mm 0.06 in1.5 mm 0.10 in2.5 mm
07:20 PM 37.9°F3.3°C 35.2°F1.8°C 90% 1.0 mph NE1.6 kmh NE 5.0 mph8.0 kmh 29.95 in1014.2 mb 0.07 in1.8 mm 0.12 in3.0 mm 0.13 in3.3 mm
07:30 PM 37.7°F3.2°C 35.0°F1.7°C 90% Calm Calm 5.0 mph8.0 kmh 29.95 in1014.2 mb 0.08 in2.0 mm 0.06 in1.5 mm 0.15 in3.8 mm
07:40 PM 37.3°F2.9°C 34.6°F1.4°C 90% 1.0 mph NE1.6 kmh NE 4.0 mph6.4 kmh 29.95 in1014.2 mb 0.10 in2.5 mm 0.12 in3.0 mm 0.17 in4.3 mm
07:50 PM 36.6°F2.6°C 33.9°F1.1°C 90% Calm Calm 8.0 mph12.9 kmh 29.94 in1013.9 mb 0.10 in2.5 mm 0.00 in0.0 mm 0.18 in4.6 mm
08:00 PM 36.0°F2.2°C 33.4°F0.8°C 90% 2.0 mph NE3.2 kmh NE 7.0 mph11.3 kmh 29.93 in1013.5 mb 0.12 in3.0 mm 0.02 in0.5 mm 0.20 in5.1 mm
08:10 PM 35.1°F1.7°C 32.5°F0.3°C 90% 1.0 mph ENE1.6 kmh ENE 10.0 mph16.1 kmh 29.92 in1013.2 mb 0.10 in2.5 mm 0.00 in0.0 mm 0.20 in5.1 mm
08:20 PM 34.4°F1.3°C 32.0°F0.0°C 91% 1.0 mph NE1.6 kmh NE 6.0 mph9.7 kmh 29.92 in1013.2 mb 0.07 in1.8 mm 0.00 in0.0 mm 0.20 in5.1 mm
08:30 PM 33.9°F1.1°C 31.6°F-0.2°C 91% 1.0 mph NE1.6 kmh NE 7.0 mph11.3 kmh 29.92 in1013.2 mb 0.05 in1.3 mm 0.00 in0.0 mm 0.20 in5.1 mm
08:40 PM 33.6°F0.9°C 31.3°F-0.4°C 91% 1.0 mph NE1.6 kmh NE 5.0 mph8.0 kmh 29.92 in1013.2 mb 0.03 in0.8 mm 0.00 in0.0 mm 0.20 in5.1 mm
08:50 PM 33.3°F0.7°C 31.0°F-0.6°C 91% Calm Calm 5.0 mph8.0 kmh 29.92 in1013.2 mb 0.03 in0.8 mm 0.00 in0.0 mm 0.21 in5.3 mm
09:00 PM 33.2°F0.7°C 31.1°F-0.5°C 92% Calm Calm 4.0 mph6.4 kmh 29.92 in1013.2 mb 0.01 in0.3 mm 0.00 in0.0 mm 0.21 in5.3 mm
09:10 PM 33.2°F0.7°C 31.1°F-0.5°C 92% Calm Calm 2.0 mph3.2 kmh 29.92 in1013.2 mb 0.01 in0.3 mm 0.00 in0.0 mm 0.21 in5.3 mm
09:20 PM 33.2°F0.7°C 31.1°F-0.5°C 92% Calm Calm 4.0 mph6.4 kmh 29.92 in1013.2 mb 0.01 in0.3 mm 0.00 in0.0 mm 0.21 in5.3 mm
09:30 PM 33.1°F0.6°C 31.0°F-0.6°C 92% Calm Calm 2.0 mph3.2 kmh 29.92 in1013.2 mb 0.02 in0.5 mm 0.06 in1.5 mm 0.22 in5.6 mm
09:40 PM 32.9°F0.5°C 30.8°F-0.7°C 92% Calm Calm 2.0 mph3.2 kmh 29.92 in1013.2 mb 0.02 in0.5 mm 0.00 in0.0 mm 0.22 in5.6 mm
09:50 PM 32.8°F0.4°C 30.7°F-0.7°C 92% Calm Calm 1.0 mph1.6 kmh 29.91 in1012.9 mb 0.01 in0.3 mm 0.00 in0.0 mm 0.22 in5.6 mm
10:00 PM 32.6°F0.3°C 30.8°F-0.7°C 93% Calm Calm 6.0 mph9.7 kmh 29.90 in1012.5 mb 0.01 in0.3 mm 0.00 in0.0 mm 0.22 in5.6 mm
10:10 PM 32.5°F0.3°C 30.7°F-0.7°C 93% Calm Calm 4.0 mph6.4 kmh 29.89 in1012.2 mb 0.01 in0.3 mm 0.00 in0.0 mm 0.22 in5.6 mm
10:20 PM 32.5°F0.3°C 30.7°F-0.7°C 93% 1.0 mph NE1.6 kmh NE 3.0 mph4.8 kmh 29.88 in1011.9 mb 0.01 in0.3 mm 0.00 in0.0 mm 0.22 in5.6 mm
10:30 PM 32.4°F0.2°C 30.6°F-0.8°C 93% Calm Calm 4.0 mph6.4 kmh 29.87 in1011.5 mb 0.00 in0.0 mm 0.00 in0.0 mm 0.22 in5.6 mm
10:40 PM 32.4°F0.2°C 30.6°F-0.8°C 93% 2.0 mph NE3.2 kmh NE 4.0 mph6.4 kmh 29.87 in1011.5 mb 0.01 in0.3 mm 0.06 in1.5 mm 0.23 in5.8 mm
10:50 PM 32.4°F0.2°C 30.6°F-0.8°C 93% 1.0 mph NNE1.6 kmh NNE 4.0 mph6.4 kmh 29.87 in1011.5 mb 0.01 in0.3 mm 0.00 in0.0 mm 0.23 in5.8 mm
11:00 PM 32.5°F0.3°C 31.0°F-0.6°C 94% Calm Calm 5.0 mph8.0 kmh 29.88 in1011.9 mb 0.02 in0.5 mm 0.01 in0.3 mm 0.24 in6.1 mm
11:10 PM 32.7°F0.4°C 31.2°F-0.4°C 94% 1.0 mph NNE1.6 kmh NNE 5.0 mph8.0 kmh 29.88 in1011.9 mb 0.02 in0.5 mm 0.00 in0.0 mm 0.24 in6.1 mm
11:20 PM 32.7°F0.4°C 31.2°F-0.4°C 94% Calm Calm 3.0 mph4.8 kmh 29.87 in1011.5 mb 0.02 in0.5 mm 0.00 in0.0 mm 0.24 in6.1 mm
11:30 PM 32.8°F0.4°C 31.3°F-0.4°C 94% Calm Calm 3.0 mph4.8 kmh 29.86 in1011.2 mb 0.02 in0.5 mm 0.00 in0.0 mm 0.25 in6.4 mm
11:40 PM 32.9°F0.5°C 31.4°F-0.3°C 94% 1.0 mph NE1.6 kmh NE 4.0 mph6.4 kmh 29.86 in1011.2 mb 0.02 in0.5 mm 0.00 in0.0 mm 0.25 in6.4 mm
11:50 PM 33.1°F0.6°C 31.6°F-0.2°C 94% 1.0 mph NE1.6 kmh NE 6.0 mph9.7 kmh 29.85 in1010.8 mb 0.03 in0.8 mm 0.06 in1.5 mm 0.26 in6.6 mm